MISCOU ISLAND(AUT) N current weather conditions

sailwx.info

Wind from 060 at 25 knots gusting 34

Air temperature -0.0° C
Dewpoint -0.0° C

Last reported at 2019-Nov-12 15:00 UTC.
Time now 2019-Nov-12 16:03 UTC

Location: N 48°01' W 064°30'.
View on Google Maps.

See reports from other nearby stations

  
Tides and Currents Weather Stations Pressure Air Temp Water Temp Dewpoint Dewpoint Depression Visibility Wind Speed Wind Dir Waves Ship Positions
date/time (UTC)wind fromknots sea level pressurealtimeterstation pressurevisibilityair tempwater tempwave heightnotes
2019-Nov-12 15:00 060 25 gusting 34 -0.0
2019-Nov-12 14:00 060 26 gusting 31 -0.0
2019-Nov-12 13:00 080 24 gusting 31 -0.0
2019-Nov-12 12:00 070 24 gusting 31 -1.0
2019-Nov-12 11:00 080 22 gusting 32 -0.0
2019-Nov-12 10:00 080 18 gusting 22 -1.0
2019-Nov-12 09:00 080 13 -2.0
2019-Nov-12 08:00 090 12 gusting 17 -2.0
2019-Nov-12 07:00 070 12 -2.0
2019-Nov-12 06:00 040 9 -2.0
2019-Nov-12 05:00 070 6 -1.0
2019-Nov-12 04:00 020 4 -2.0
2019-Nov-12 03:00 020 4 -2.0
2019-Nov-12 02:00 -2.0
2019-Nov-12 01:00 310 6 -2.0
2019-Nov-12 00:00 300 6 -2.0
2019-Nov-11 23:00 280 5 -2.0
2019-Nov-11 22:00 270 4 -3.0
2019-Nov-11 21:00 280 5 -3.0
2019-Nov-11 20:00 270 4 -1.0
2019-Nov-11 19:00 280 8 -1.0
2019-Nov-11 18:00 290 8 -0.0
2019-Nov-11 17:00 290 8 gusting 17 -0.0
2019-Nov-11 16:00 290 9 gusting 14 -2.0
2019-Nov-11 15:00 290 11 gusting 18 -2.0
2019-Nov-11 14:00 280 12 gusting 18 -3.0
2019-Nov-11 13:00 290 9 gusting 14 -2.0
2019-Nov-11 12:00 270 11 -2.0
2019-Nov-11 11:00 270 12 gusting 18 -1.0
2019-Nov-11 10:00 270 13 gusting 20 -0.0
2019-Nov-11 09:00 260 14 gusting 22 1.0
2019-Nov-11 08:00 260 13 gusting 18 2.0
2019-Nov-11 07:00 260 18 gusting 25 4.0
2019-Nov-11 06:00 210 13 3.0
2019-Nov-11 05:00 220 13 4.0
2019-Nov-11 04:00 220 13 4.0
2019-Nov-11 03:00 210 14 4.0
2019-Nov-11 02:00 220 15 gusting 22 4.0
2019-Nov-11 01:00 220 17 gusting 24 4.0
2019-Nov-11 00:00 210 18 gusting 25 4.0
2019-Nov-10 23:00 210 14 4.0
2019-Nov-10 22:00 200 13 gusting 20 4.0
2019-Nov-10 21:00 200 12 gusting 18 4.0
2019-Nov-10 20:00 200 12 gusting 19 4.0
2019-Nov-10 19:00 200 11 4.0
2019-Nov-10 18:00 200 14 gusting 21 4.0
2019-Nov-10 17:00 210 17 gusting 25 3.0
2019-Nov-10 16:00 210 15 gusting 22 2.0